Time;durP1;ratioP1;P1;durP2;ratioP2;P2;SDS_P1;SDS_P2;PMS_P1;PMS_P2;Temp;Humidity;BMP_temperature;BMP_pressure;BME280_temperature;BME280_humidity;BME280_pressure;Samples;Min_cycle;Max_cycle;Signal;HPM_P1;HPM_P2
2022/08/11 00:01:49;;;;;;;2.92;2.17;;;;;;;21.07;38.04;99507.38;5220987;28;20055;-68
2022/08/11 00:04:40;;;;;;;6.22;2.33;;;;;;;21.19;37.94;99523.84;5224388;28;20103;-68
2022/08/11 00:07:31;;;;;;;5.63;2.30;;;;;;;21.15;38.11;99524.41;5226436;28;20238;-67
2022/08/11 00:10:28;;;;;;;3.22;2.40;;;;;;;21.34;37.74;99524.56;5225728;28;20411;-66
2022/08/11 00:13:19;;;;;;;5.22;2.22;;;;;;;21.19;37.61;99501.41;5233328;28;20049;-66
2022/08/11 00:16:13;;;;;;;3.53;1.92;;;;;;;21.15;38.11;99502.84;5247148;28;20118;-68
2022/08/11 00:19:03;;;;;;;4.40;2.13;;;;;;;21.07;38.10;99511.94;5228915;28;20418;-67
2022/08/11 00:21:55;;;;;;;3.45;2.22;;;;;;;20.99;38.55;99515.63;5225563;28;20057;-68
2022/08/11 00:24:56;;;;;;;3.25;2.13;;;;;;;21.03;38.21;99516.91;5225585;28;20581;-68
2022/08/11 00:27:51;;;;;;;3.35;2.53;;;;;;;20.80;38.86;99519.88;5226005;28;20056;-68
2022/08/11 00:30:41;;;;;;;3.80;2.45;;;;;;;20.92;38.89;99528.22;5239193;28;20055;-68
2022/08/11 00:33:37;;;;;;;3.03;2.08;;;;;;;20.78;38.75;99521.91;5246273;28;20063;-70
2022/08/11 00:36:42;;;;;;;6.15;2.15;;;;;;;20.86;38.57;99526.31;5246495;28;20048;-68
2022/08/11 00:39:41;;;;;;;5.63;2.35;;;;;;;21.02;38.41;99525.16;5245363;28;20133;-68
2022/08/11 00:43:08;;;;;;;3.65;2.30;;;;;;;20.81;38.82;99531.47;5245077;28;20053;-66
2022/08/11 00:46:28;;;;;;;3.65;2.38;;;;;;;20.71;38.97;99522.91;5245872;28;20246;-68
2022/08/11 00:49:50;;;;;;;6.13;2.30;;;;;;;20.89;38.80;99528.63;5244786;28;20114;-67
2022/08/11 00:53:25;;;;;;;2.75;2.40;;;;;;;20.65;39.47;99527.22;5245665;28;20155;-68
2022/08/11 00:56:43;;;;;;;7.75;2.22;;;;;;;20.56;39.64;99525.69;5245162;28;20050;-68
2022/08/11 00:59:53;;;;;;;6.03;2.10;;;;;;;20.83;38.94;99526.72;5245654;28;20048;-68
2022/08/11 01:02:55;;;;;;;3.00;2.28;;;;;;;20.68;39.21;99510.66;5244037;28;20079;-68
2022/08/11 01:06:07;;;;;;;4.28;2.33;;;;;;;20.64;39.44;99526.38;5245035;28;20121;-68
2022/08/11 01:09:19;;;;;;;4.75;2.58;;;;;;;20.77;39.26;99522.97;5245960;28;20087;-68
2022/08/11 01:12:24;;;;;;;;;;;;;;;20.58;39.73;99529.03;5244188;28;20056;-68
2022/08/11 01:16:03;;;;;;;4.88;2.58;;;;;;;20.49;40.01;99528.28;5245119;28;19928;-67
2022/08/11 01:19:35;;;;;;;4.72;2.28;;;;;;;20.51;40.15;99523.59;5245711;28;20055;-68
2022/08/11 01:23:02;;;;;;;3.67;2.70;;;;;;;20.62;39.73;99530.28;5245614;28;20130;-68
2022/08/11 01:26:22;;;;;;;4.60;2.20;;;;;;;20.31;40.57;99533.34;5245279;28;20055;-68
2022/08/11 01:30:06;;;;;;;4.13;2.60;;;;;;;20.28;40.58;99529.16;5244606;28;20502;-68
2022/08/11 01:33:52;;;;;;;3.40;2.20;;;;;;;20.23;40.73;99523.53;5245092;28;20051;-68
2022/08/11 01:37:01;;;;;;;6.05;2.63;;;;;;;20.16;41.17;99520.78;5245240;28;20060;-68
2022/08/11 01:40:16;;;;;;;3.85;2.35;;;;;;;20.13;41.31;99523.84;5245354;28;20502;-68
2022/08/11 01:46:55;;;;;;;6.38;2.60;;;;;;;19.98;41.55;99506.94;5244640;28;20051;-68
2022/08/11 01:50:07;;;;;;;4.22;2.35;;;;;;;20.01;41.37;99521.88;5245085;28;20047;-68
2022/08/11 01:53:11;;;;;;;5.70;2.72;;;;;;;19.83;41.86;99522.28;5243631;28;20059;-68
2022/08/11 01:56:25;;;;;;;4.65;2.35;;;;;;;19.87;41.99;99521.72;5244440;28;20060;-69
2022/08/11 01:59:33;;;;;;;4.65;2.75;;;;;;;19.68;42.29;99517.78;5244545;28;20102;-67
2022/08/11 02:02:46;;;;;;;4.35;2.83;;;;;;;19.61;42.85;99514.16;5244000;28;20129;-68
2022/08/11 02:05:59;;;;;;;4.57;2.47;;;;;;;19.59;42.39;99518.91;5244512;28;20141;-68
2022/08/11 02:08:57;;;;;;;3.38;2.45;;;;;;;19.65;42.56;99517.34;5224107;28;20060;-68
2022/08/11 02:11:55;;;;;;;6.32;2.60;;;;;;;19.53;42.89;99516.13;5222743;28;20048;-69
2022/08/11 02:15:10;;;;;;;3.00;2.70;;;;;;;19.29;43.66;99517.28;5223956;28;20056;-69
2022/08/11 02:18:09;;;;;;;3.60;2.30;;;;;;;19.11;44.26;99515.81;5222854;28;20147;-69
2022/08/11 02:24:35;;;;;;;4.32;2.28;;;;;;;18.82;45.36;99518.50;5223643;28;20135;-68
2022/08/11 02:27:37;;;;;;;5.88;2.40;;;;;;;18.74;45.11;99514.88;5223132;28;20049;-69
2022/08/11 02:30:35;;;;;;;5.07;2.85;;;;;;;18.71;45.29;99509.84;5223259;28;20187;-68
2022/08/11 02:33:33;;;;;;;6.43;2.80;;;;;;;18.73;45.46;99515.06;5223336;28;20064;-68
2022/08/11 02:36:51;;;;;;;2.75;2.38;;;;;;;18.59;45.89;99505.94;5223352;28;20080;-68
2022/08/11 02:39:56;;;;;;;5.15;2.60;;;;;;;18.59;46.28;99511.31;5223382;28;20045;-68
2022/08/11 02:42:46;;;;;;;3.72;2.70;;;;;;;18.49;46.36;99508.06;5222694;28;20547;-67
2022/08/11 02:45:53;;;;;;;3.30;2.60;;;;;;;18.41;46.78;99495.53;5223521;28;20076;-67
2022/08/11 02:52:24;;;;;;;6.32;2.70;;;;;;;18.36;46.34;99505.16;5221914;28;20052;-68
2022/08/11 02:55:20;;;;;;;3.08;2.30;;;;;;;18.37;47.08;99506.81;5222746;28;20060;-68
2022/08/11 03:02:46;;;;;;;4.07;2.95;;;;;;;18.09;46.81;99510.06;5221641;28;20084;-68
2022/08/11 03:05:36;;;;;;;3.35;2.63;;;;;;;18.03;47.20;99510.78;5222465;28;20075;-68
2022/08/11 03:08:51;;;;;;;3.50;2.47;;;;;;;17.94;47.34;99520.72;5243829;28;20182;-67
2022/08/11 03:18:40;;;;;;;8.57;2.60;;;;;;;17.69;47.51;99513.84;5244014;28;20052;-67
2022/08/11 03:21:43;;;;;;;3.65;2.60;;;;;;;17.71;47.18;99518.00;5242596;28;20051;-65
2022/08/11 03:25:14;;;;;;;3.33;2.70;;;;;;;17.59;47.72;99522.09;5244049;28;20513;-68
2022/08/11 03:28:29;;;;;;;4.57;2.83;;;;;;;17.40;47.61;99523.38;5243705;28;20052;-68
2022/08/11 03:31:26;;;;;;;3.97;2.63;;;;;;;17.45;47.61;99510.28;5243245;28;20041;-67
2022/08/11 03:34:21;;;;;;;3.85;2.63;;;;;;;17.40;48.38;99509.97;5243638;28;20110;-67
2022/08/11 03:44:19;;;;;;;3.67;2.60;;;;;;;17.40;48.31;99531.41;5247040;28;20055;-67
2022/08/11 03:47:32;;;;;;;2.85;2.55;;;;;;;17.26;48.68;99535.66;5247467;28;20190;-68
2022/08/11 03:50:33;;;;;;;3.10;2.67;;;;;;;17.30;48.58;99526.25;5247178;28;20058;-68
2022/08/11 03:53:54;;;;;;;3.65;2.65;;;;;;;17.26;48.55;99524.94;5246667;28;20506;-68
2022/08/11 03:57:23;;;;;;;4.93;3.22;;;;;;;17.10;48.95;99538.41;5246951;28;20052;-68
2022/08/11 04:00:44;;;;;;;4.63;3.05;;;;;;;17.21;48.09;99532.66;5245912;28;20568;-68
2022/08/11 04:03:52;;;;;;;4.18;2.80;;;;;;;17.05;48.80;99535.38;5247040;28;20453;-68
2022/08/11 04:06:51;;;;;;;5.45;3.00;;;;;;;16.79;50.11;99535.66;5237591;28;20052;-68
2022/08/11 04:10:17;;;;;;;5.13;3.00;;;;;;;17.03;49.84;99532.06;5226262;28;20526;-67
2022/08/11 04:13:44;;;;;;;3.95;2.60;;;;;;;16.96;49.39;99534.59;5224955;28;20172;-67
2022/08/11 04:16:52;;;;;;;6.38;3.08;;;;;;;17.03;50.32;99530.22;5224687;28;20048;-68
2022/08/11 04:20:03;;;;;;;7.18;3.88;;;;;;;17.08;50.80;99527.00;5226394;28;20044;-67
2022/08/11 04:23:29;;;;;;;5.63;3.60;;;;;;;17.01;51.33;99534.91;5226134;28;20060;-66
2022/08/11 04:27:17;;;;;;;7.25;3.22;;;;;;;17.01;49.95;99534.91;5225838;28;20060;-67
2022/08/11 04:30:18;;;;;;;4.28;3.05;;;;;;;17.05;49.91;99541.59;5226224;28;20518;-66
2022/08/11 04:33:53;;;;;;;7.28;3.20;;;;;;;17.14;50.68;99540.53;5225560;28;20194;-69
2022/08/11 04:37:33;;;;;;;6.10;3.28;;;;;;;16.98;50.57;99542.44;5224548;28;20151;-68
2022/08/11 04:40:47;;;;;;;4.55;3.05;;;;;;;16.98;50.26;99540.59;5225304;28;20557;-67
2022/08/11 04:44:00;;;;;;;7.50;3.57;;;;;;;16.99;51.42;99538.78;5225336;28;20057;-69
2022/08/11 05:02:14;;;;;;;7.07;2.90;;;;;;;17.02;51.31;99554.47;5223777;28;20049;-68
2022/08/11 05:05:31;;;;;;;5.50;3.13;;;;;;;17.06;51.15;99555.84;5225078;28;20080;-69
2022/08/11 05:08:53;;;;;;;10.07;3.03;;;;;;;17.14;51.67;99553.94;5225405;28;20044;-69
2022/08/11 05:12:12;;;;;;;6.93;3.50;;;;;;;17.09;51.95;99553.66;5224371;28;20084;-68
2022/08/11 05:57:21;;;;;;;7.97;3.80;;;;;;;18.49;50.47;99567.97;5223519;28;20135;-68
2022/08/11 06:00:40;;;;;;;7.68;3.58;;;;;;;18.57;51.52;99569.72;5223502;28;20136;-66
2022/08/11 06:04:12;;;;;;;20.23;5.35;;;;;;;18.76;53.13;99569.25;5223969;28;20071;-67
2022/08/11 06:07:00;;;;;;;11.80;4.13;;;;;;;18.80;51.30;99567.03;5234140;28;20554;-66
2022/08/11 06:09:50;;;;;;;7.38;3.75;;;;;;;18.97;51.21;99557.81;5244447;28;20052;-68
2022/08/11 06:12:41;;;;;;;7.07;3.78;;;;;;;19.13;48.45;99558.63;5238559;28;20535;-67
2022/08/11 06:15:42;;;;;;;5.07;3.25;;;;;;;19.17;48.64;99549.16;5224104;28;20551;-66
2022/08/11 06:18:33;;;;;;;6.65;3.33;;;;;;;19.35;47.79;99551.50;5233412;28;20137;-67
2022/08/11 06:21:24;;;;;;;5.05;3.22;;;;;;;19.42;48.61;99561.31;5233223;28;20057;-67
2022/08/11 06:24:14;;;;;;;5.82;3.20;;;;;;;19.46;47.52;99546.47;5244915;28;20064;-66
2022/08/11 06:27:06;;;;;;;7.00;3.30;;;;;;;19.67;48.15;99552.97;5244660;28;20564;-66
2022/08/11 06:30:12;;;;;;;9.80;4.10;;;;;;;19.83;46.78;99551.88;5235397;28;20518;-66
2022/08/11 06:33:06;;;;;;;10.25;3.45;;;;;;;19.93;47.51;99557.78;5223571;28;20503;-66
2022/08/11 06:36:06;;;;;;;;;;;;;;;20.02;46.82;99559.34;5223906;28;20507;-66
2022/08/11 06:39:21;;;;;;;5.18;3.22;;;;;;;20.07;47.54;99565.00;5232901;28;19985;-66
2022/08/11 06:42:25;;;;;;;10.50;3.13;;;;;;;20.27;46.49;99564.38;5230211;28;20430;-69
2022/08/11 06:45:47;;;;;;;10.80;3.22;;;;;;;20.28;45.98;99560.66;5233426;28;20052;-66
2022/08/11 06:48:38;;;;;;;20.08;3.03;;;;;;;20.50;45.54;99554.22;5228448;28;20053;-66
2022/08/11 06:51:30;;;;;;;7.07;3.45;;;;;;;20.74;46.61;99560.25;5222958;28;20076;-67
2022/08/11 06:54:22;;;;;;;8.98;3.38;;;;;;;20.83;46.57;99557.22;5234601;28;20522;-66
2022/08/11 07:00:26;;;;;;;14.23;3.17;;;;;;;21.13;44.03;99554.28;5243826;28;20048;-67
2022/08/11 07:03:19;;;;;;;9.95;2.78;;;;;;;21.35;43.76;99557.75;5228785;28;20129;-68
2022/08/11 07:06:44;;;;;;;13.10;2.92;;;;;;;21.76;43.25;99554.19;5232856;28;20190;-67
2022/08/11 07:16:43;;;;;;;7.00;3.03;;;;;;;22.85;41.17;99559.34;5238010;28;20114;-67
2022/08/11 07:29:16;;;;;;;6.22;3.20;;;;;;;24.12;38.33;99546.22;5236221;28;20052;-69
2022/08/11 07:32:23;;;;;;;4.32;2.90;;;;;;;24.64;37.50;99546.06;5247137;28;20487;-69
2022/08/11 07:35:23;;;;;;;5.28;2.80;;;;;;;24.95;37.36;99545.97;5248084;28;20048;-69
2022/08/11 07:38:41;;;;;;;5.93;2.75;;;;;;;25.75;35.22;99528.78;5247632;28;20075;-69
2022/08/11 07:41:33;;;;;;;7.60;2.85;;;;;;;27.33;34.10;99537.34;5226202;28;20056;-69
2022/08/11 07:44:28;;;;;;;5.13;2.60;;;;;;;27.69;31.57;99535.34;5226730;28;20052;-69
2022/08/11 07:53:49;;;;;;;8.02;2.53;;;;;;;30.56;28.20;99535.56;5246718;28;20052;-70
2022/08/11 07:56:53;;;;;;;4.53;2.60;;;;;;;30.87;28.57;99517.50;5246903;28;20071;-70
2022/08/11 08:18:54;;;;;;;5.15;2.65;;;;;;;32.23;26.02;99526.53;5235733;28;20072;-68
2022/08/11 08:21:46;;;;;;;4.47;2.50;;;;;;;32.57;25.36;99525.19;5236203;28;20506;-68
2022/08/11 08:24:40;;;;;;;5.47;2.58;;;;;;;32.68;25.57;99530.41;5235194;28;20059;-68
2022/08/11 08:27:31;;;;;;;3.80;2.67;;;;;;;32.76;25.17;99526.25;5236836;28;20110;-68
2022/08/11 08:33:33;;;;;;;3.90;2.47;;;;;;;32.44;25.71;99521.06;5233510;28;20546;-68
2022/08/11 08:36:24;;;;;;;5.05;2.63;;;;;;;33.62;24.73;99524.38;5238128;28;20527;-68
2022/08/11 08:39:19;;;;;;;3.15;2.15;;;;;;;34.06;24.53;99509.81;5235080;28;20056;-68
2022/08/11 08:42:12;;;;;;;5.43;2.58;;;;;;;34.54;23.46;99518.28;5235722;28;20052;-68
2022/08/11 08:45:09;;;;;;;7.00;2.40;;;;;;;33.84;23.50;99516.56;5234756;28;20049;-68
2022/08/11 08:48:03;;;;;;;3.92;2.25;;;;;;;33.39;23.43;99506.59;5236508;28;20395;-68
2022/08/11 08:54:20;;;;;;;2.95;2.35;;;;;;;32.96;23.62;99508.94;5236017;28;20075;-68
2022/08/11 08:57:12;;;;;;;4.47;2.40;;;;;;;33.55;23.70;99519.19;5235612;28;20117;-68
2022/08/11 09:00:06;;;;;;;5.45;2.20;;;;;;;33.58;23.25;99510.38;5237480;28;20129;-68
2022/08/11 09:03:02;;;;;;;5.05;2.00;;;;;;;33.31;23.22;99513.50;5233947;28;20092;-67
2022/08/11 09:06:16;;;;;;;5.95;2.13;;;;;;;33.34;23.10;99518.41;5233468;28;20584;-68
2022/08/11 09:09:07;;;;;;;6.07;1.92;;;;;;;33.67;22.77;99521.59;5225522;28;20118;-68
2022/08/11 09:11:59;;;;;;;4.38;2.33;;;;;;;34.60;22.73;99517.09;5244618;28;20051;-69
2022/08/11 09:15:00;;;;;;;6.47;1.95;;;;;;;34.05;21.22;99506.25;5245486;28;20052;-69
2022/08/11 09:18:02;;;;;;;3.17;1.98;;;;;;;34.46;21.59;99516.94;5242556;28;20099;-68
2022/08/11 09:20:52;;;;;;;2.00;1.80;;;;;;;33.93;22.16;99508.50;5224353;28;20052;-67
2022/08/11 09:27:03;;;;;;;3.88;1.70;;;;;;;32.95;21.99;99515.50;5224740;28;20209;-67
2022/08/11 09:29:54;;;;;;;5.22;1.88;;;;;;;33.55;22.09;99512.88;5224356;28;20053;-67
2022/08/11 09:32:45;;;;;;;5.88;1.90;;;;;;;32.78;21.36;99506.75;5224413;28;20411;-68
2022/08/11 09:35:37;;;;;;;2.33;1.70;;;;;;;33.28;22.17;99514.06;5232181;28;20056;-67
2022/08/11 09:41:39;;;;;;;2.03;1.80;;;;;;;34.50;20.49;99509.72;5243596;28;20079;-67
2022/08/11 09:44:51;;;;;;;4.47;1.60;;;;;;;34.73;20.57;99505.41;5236126;28;20051;-70
2022/08/11 09:47:43;;;;;;;2.15;1.90;;;;;;;34.69;21.57;99506.28;5232297;28;20059;-68
2022/08/11 09:50:38;;;;;;;3.13;1.88;;;;;;;34.75;21.24;99514.22;5234627;28;20111;-68
2022/08/11 09:53:35;;;;;;;2.55;1.73;;;;;;;35.02;20.47;99499.06;5232274;28;20096;-67
2022/08/11 09:59:40;;;;;;;2.25;1.80;;;;;;;35.06;20.71;99486.34;5222868;28;20206;-67
2022/08/11 10:02:31;;;;;;;4.20;1.80;;;;;;;33.78;20.74;99498.44;5235342;28;20048;-68
2022/08/11 10:08:36;;;;;;;3.75;2.28;;;;;;;34.28;21.27;99485.44;5223205;28;20064;-67
2022/08/11 10:11:28;;;;;;;4.00;1.80;;;;;;;33.75;20.34;99488.00;5231211;28;20531;-68
2022/08/11 10:18:40;;;;;;;2.90;1.90;;;;;;;34.31;20.85;99487.63;5223191;28;20060;-68
2022/08/11 10:20:56;;;;;;;4.78;1.50;;;;;;;33.88;20.37;99486.56;5236028;22;20048;-83
2022/08/11 10:27:02;;;;;;;3.25;1.77;;;;;;;33.79;20.67;99482.75;5203501;28;20060;-83
2022/08/11 10:36:34;;;;;;;2.83;1.50;;;;;;;33.70;20.63;99460.53;5205311;28;20097;-84
2022/08/11 10:39:25;;;;;;;2.75;1.90;;;;;;;33.74;20.56;99445.09;5206521;28;20100;-84
2022/08/11 10:48:56;;;;;;;2.88;1.67;;;;;;;34.35;20.43;99460.34;5205980;28;20076;-84
2022/08/11 11:01:25;;;;;;;4.45;1.55;;;;;;;33.62;20.85;99439.13;5204940;28;20055;-84
2022/08/11 11:04:17;;;;;;;3.17;1.63;;;;;;;33.19;20.19;99423.13;5201180;28;20072;-85
2022/08/11 11:07:13;;;;;;;7.13;1.80;;;;;;;32.64;21.42;99408.47;5210337;28;20060;-84
2022/08/11 11:10:07;;;;;;;1.70;1.60;;;;;;;33.60;21.42;99438.59;5190462;28;20466;-84
2022/08/11 11:19:23;;;;;;;5.93;1.70;;;;;;;32.16;20.79;99412.66;5206335;28;20124;-84
2022/08/11 11:26:06;;;;;;;2.42;1.60;;;;;;;33.79;19.74;99408.50;5205323;28;20053;-84
2022/08/11 11:29:19;;;;;;;3.13;1.55;;;;;;;33.57;20.52;99417.97;5220440;28;20118;-85
2022/08/11 11:32:33;;;;;;;6.73;1.60;;;;;;;33.48;20.75;99407.84;5194759;28;20097;-84
2022/08/11 11:35:35;;;;;;;4.57;1.80;;;;;;;32.85;21.02;99400.16;5220723;28;20167;-87
2022/08/11 11:38:27;;;;;;;1.80;1.70;;;;;;;33.64;20.07;99392.91;5208225;28;20053;-85
2022/08/11 11:41:23;;;;;;;2.90;1.48;;;;;;;33.83;19.36;99395.81;5214001;28;20498;-84
2022/08/11 11:44:16;;;;;;;1.83;1.40;;;;;;;33.01;19.34;99368.00;5221741;28;20517;-85
2022/08/11 11:47:06;;;;;;;4.15;1.50;;;;;;;32.69;20.31;99392.00;5213710;28;20577;-84
2022/08/11 11:49:58;;;;;;;2.33;1.50;;;;;;;32.50;20.58;99382.72;5203863;28;20049;-85
2022/08/11 11:52:51;;;;;;;3.40;1.75;;;;;;;32.42;20.21;99364.91;5209085;28;20474;-85
2022/08/11 11:55:42;;;;;;;3.08;1.60;;;;;;;32.88;19.44;99362.00;5206398;28;20055;-84
2022/08/11 12:01:43;;;;;;;2.15;1.67;;;;;;;30.56;20.86;99352.22;5229583;28;20057;-82
2022/08/11 12:04:41;;;;;;;2.70;1.80;;;;;;;30.79;21.07;99378.38;5214216;28;20056;-85
2022/08/11 12:14:19;;;;;;;2.20;1.55;;;;;;;32.08;20.72;99350.13;5198171;28;20203;-85
2022/08/11 12:17:09;;;;;;;2.88;1.50;;;;;;;32.25;21.14;99362.44;5227848;28;20609;-85
2022/08/11 12:20:01;;;;;;;3.95;1.90;;;;;;;32.10;21.10;99370.69;5225918;28;20060;-85
2022/08/11 12:29:19;;;;;;;5.80;1.77;;;;;;;31.39;21.39;99349.56;5212030;28;20048;-86
2022/08/11 12:32:09;;;;;;;4.25;1.50;;;;;;;32.00;20.30;99354.25;5210287;28;20047;-84
2022/08/11 12:35:00;;;;;;;2.83;1.52;;;;;;;31.78;19.91;99338.88;5191403;28;20162;-85
2022/08/11 12:38:02;;;;;;;2.28;1.77;;;;;;;31.59;20.10;99343.28;5194022;28;20084;-85
2022/08/11 12:47:20;;;;;;;1.98;1.65;;;;;;;32.30;21.18;99334.16;5225917;28;20412;-85
2022/08/11 12:53:26;;;;;;;2.75;1.42;;;;;;;31.29;19.78;99301.03;5224278;28;20121;-84
2022/08/11 13:05:52;;;;;;;3.33;1.40;;;;;;;31.19;20.62;99291.94;5224063;28;20525;-85
2022/08/11 13:08:45;;;;;;;3.85;1.60;;;;;;;31.62;20.46;99307.06;5227559;28;20241;-85
2022/08/11 13:14:48;;;;;;;3.30;1.50;;;;;;;30.76;21.61;99285.78;5228389;28;20053;-84
2022/08/11 13:17:39;;;;;;;2.97;1.27;;;;;;;31.11;21.23;99296.06;5196522;28;20091;-84
2022/08/11 13:20:34;;;;;;;2.80;2.00;;;;;;;31.38;20.56;99290.34;5223841;28;20561;-84
2022/08/11 13:23:26;;;;;;;5.70;1.73;;;;;;;31.47;21.14;99287.91;5210001;28;20056;-86
2022/08/11 13:26:16;;;;;;;2.30;1.50;;;;;;;31.85;20.82;99282.94;5196130;28;20041;-86
2022/08/11 13:29:16;;;;;;;1.92;1.20;;;;;;;31.15;19.86;99283.44;5197388;28;20519;-84
2022/08/11 13:32:08;;;;;;;9.07;1.60;;;;;;;31.12;20.35;99275.78;5209477;28;20056;-84
2022/08/11 13:34:58;;;;;;;10.30;1.60;;;;;;;31.39;20.44;99261.88;5207168;28;20049;-85
2022/08/11 13:37:50;;;;;;;6.63;1.60;;;;;;;31.29;20.99;99279.09;5213513;28;20045;-85
2022/08/11 13:41:01;;;;;;;3.40;1.40;;;;;;;31.37;20.68;99264.06;5215236;28;20060;-84
2022/08/11 13:43:52;;;;;;;2.90;1.83;;;;;;;31.63;20.00;99259.41;5209655;28;20111;-85
2022/08/11 13:46:44;;;;;;;2.60;1.60;;;;;;;31.69;19.46;99251.97;5227676;28;20052;-85
2022/08/11 13:49:37;;;;;;;1.95;1.35;;;;;;;31.20;20.06;99283.47;5210304;28;20056;-85
2022/08/11 13:52:31;;;;;;;3.30;1.60;;;;;;;30.86;20.14;99278.50;5202592;28;20115;-84
2022/08/11 13:55:22;;;;;;;4.20;1.38;;;;;;;31.47;20.27;99260.50;5199504;28;20060;-84
2022/08/11 13:58:32;;;;;;;2.88;1.52;;;;;;;31.88;20.29;99249.50;5222189;28;20478;-84
2022/08/11 14:01:35;;;;;;;2.38;1.45;;;;;;;31.53;19.97;99243.78;5220603;28;20049;-84
2022/08/11 14:04:55;;;;;;;4.10;1.40;;;;;;;31.42;19.35;99252.28;5201784;28;20563;-84
2022/08/11 14:07:51;;;;;;;2.08;1.50;;;;;;;31.26;20.27;99254.16;5227852;28;20424;-84
2022/08/11 14:10:43;;;;;;;2.03;1.58;;;;;;;31.55;20.45;99235.28;5234544;28;20055;-84
2022/08/11 14:13:37;;;;;;;6.63;1.40;;;;;;;31.88;20.47;99235.78;5223889;28;20060;-84
2022/08/11 14:16:41;;;;;;;3.03;1.58;;;;;;;31.60;19.59;99238.00;5209874;28;20106;-86
2022/08/11 14:19:39;;;;;;;1.40;1.30;;;;;;;31.73;19.52;99231.16;5225223;28;20479;-86
2022/08/11 14:22:31;;;;;;;1.92;1.35;;;;;;;31.56;19.52;99210.34;5195173;28;20044;-85
2022/08/11 14:25:21;;;;;;;1.90;1.48;;;;;;;31.75;20.17;99216.03;5210582;28;20044;-85
2022/08/11 14:28:33;;;;;;;2.72;1.50;;;;;;;31.76;20.58;99225.94;5199981;28;20087;-85
2022/08/11 14:31:44;;;;;;;2.17;1.60;;;;;;;31.77;20.25;99224.81;5208051;28;20056;-84
2022/08/11 14:34:39;;;;;;;5.38;1.35;;;;;;;31.70;19.39;99210.59;5208320;28;20092;-84
2022/08/11 14:37:29;;;;;;;1.55;1.20;;;;;;;31.20;19.61;99211.44;5207662;28;20055;-84
2022/08/11 14:47:04;;;;;;;9.65;1.35;;;;;;;31.21;19.12;99215.81;5218132;28;20052;-84
2022/08/11 14:50:21;;;;;;;2.45;1.45;;;;;;;31.47;20.52;99216.66;5206306;28;20060;-83
2022/08/11 14:53:14;;;;;;;3.53;1.50;;;;;;;31.56;19.99;99212.28;5208656;28;20044;-84
2022/08/11 14:59:17;;;;;;;1.88;1.20;;;;;;;31.98;19.07;99200.13;5212411;28;20553;-84
2022/08/11 15:05:19;;;;;;;2.63;1.40;;;;;;;31.46;19.10;99209.53;5206269;28;20064;-85
2022/08/11 15:08:12;;;;;;;2.28;1.50;;;;;;;31.23;20.03;99200.75;5205993;28;20461;-84
2022/08/11 15:12:07;;;;;;;2.42;1.20;;;;;;;30.27;19.26;99106.47;5221348;28;20076;-82
2022/08/11 15:17:06;;;;;;;4.88;1.40;;;;;;;31.02;20.42;99160.75;5221205;28;20064;-85
2022/08/11 15:17:25;;;;;;;1.75;1.35;;;;;;;31.70;20.42;99188.66;5218208;28;20446;-86
2022/08/11 15:46:56;;;;;;;1.30;1.20;;;;;;;31.56;19.70;99166.50;5222566;28;20049;-85
2022/08/11 15:49:52;;;;;;;3.67;1.40;;;;;;;31.26;18.71;99155.53;5227909;28;20142;-84
2022/08/11 15:53:10;;;;;;;3.35;1.60;;;;;;;31.58;20.62;99149.75;5222032;28;20048;-84
2022/08/11 15:56:02;;;;;;;3.97;1.60;;;;;;;31.66;19.33;99162.09;5189145;28;20049;-85
2022/08/11 16:05:36;;;;;;;2.58;1.30;;;;;;;30.93;19.95;99163.22;5213989;28;20045;-84
2022/08/11 16:08:43;;;;;;;3.72;1.60;;;;;;;30.65;19.76;99145.38;5212012;28;20055;-85
2022/08/11 16:11:44;;;;;;;2.08;1.60;;;;;;;31.25;19.39;99151.97;5216012;28;20049;-85
2022/08/11 16:18:14;;;;;;;2.97;1.50;;;;;;;30.66;20.16;99150.59;5208348;28;20056;-85
2022/08/11 16:21:26;;;;;;;5.15;1.30;;;;;;;31.07;20.55;99168.97;5217827;28;20260;-83
2022/08/11 16:24:25;;;;;;;2.45;1.60;;;;;;;30.95;21.01;99130.09;5227717;28;20048;-84
2022/08/11 16:27:43;;;;;;;4.63;1.83;;;;;;;31.20;21.07;99151.19;5214876;28;20052;-84
2022/08/11 16:30:41;;;;;;;1.65;1.55;;;;;;;31.02;19.79;99134.19;5221786;28;20056;-84
2022/08/11 16:33:32;;;;;;;1.88;1.38;;;;;;;31.07;19.76;99152.56;5197345;28;20574;-86
2022/08/11 16:39:52;;;;;;;2.28;1.50;;;;;;;31.06;20.56;99154.47;5223708;28;20603;-85
2022/08/11 16:49:17;;;;;;;5.07;1.90;;;;;;;30.91;20.13;99139.94;5225684;28;20084;-85
2022/08/11 16:52:11;;;;;;;4.15;1.50;;;;;;;31.04;20.45;99144.88;5212411;28;20545;-87
2022/08/11 16:55:04;;;;;;;3.25;1.48;;;;;;;31.00;20.79;99130.91;5196359;28;20049;-86
2022/08/11 17:01:06;;;;;;;2.65;1.85;;;;;;;30.61;20.61;99138.81;5236208;28;20105;-89
2022/08/11 17:14:05;;;;;;;5.13;1.58;;;;;;;30.35;20.42;99146.97;5219121;28;20056;-85
2022/08/11 17:16:58;;;;;;;2.25;1.50;;;;;;;30.67;20.53;99145.94;5217304;28;20065;-86
2022/08/11 17:19:54;;;;;;;3.00;2.13;;;;;;;30.83;20.78;99144.88;5195304;28;20049;-87
2022/08/11 17:26:52;;;;;;;2.22;1.60;;;;;;;30.48;20.42;99136.59;5210277;28;20078;-85
2022/08/11 17:29:55;;;;;;;2.72;1.55;;;;;;;30.12;20.71;99096.25;5212186;28;20761;-85
2022/08/11 17:36:01;;;;;;;2.45;1.40;;;;;;;30.26;20.64;99125.88;5220335;28;20041;-86
2022/08/11 17:38:52;;;;;;;1.63;1.50;;;;;;;30.34;20.42;99112.50;5210540;28;20510;-85
2022/08/11 17:59:50;;;;;;;6.25;1.73;;;;;;;30.13;20.44;99128.00;5201268;28;20182;-85
2022/08/11 18:00:53;;;;;;;2.28;1.30;;;;;;;29.95;20.69;99121.09;5204579;28;20055;-87
2022/08/11 18:03:48;;;;;;;2.65;1.60;;;;;;;29.57;21.05;99107.75;5204125;28;20413;-86
2022/08/11 18:06:49;;;;;;;3.97;1.15;;;;;;;29.61;20.92;99119.88;5204395;28;20198;-85
